Time;durP1;ratioP1;P1;durP2;ratioP2;P2;SDS_P1;SDS_P2;PMS_P1;PMS_P2;Temp;Humidity;BMP_temperature;BMP_pressure;BME280_temperature;BME280_humidity;BME280_pressure;Samples;Min_cycle;Max_cycle;Signal;HPM_P1;HPM_P2
2023/08/06 00:00:38;;;;;;;1.48;1.00;;;;;;;15.53;98.90;100495.00;4996062;28;96784;-27
2023/08/06 00:03:04;;;;;;;3.03;1.65;;;;;;;15.54;99.18;100494.88;4995406;28;98021;-27
2023/08/06 00:05:29;;;;;;;2.15;1.38;;;;;;;15.54;98.39;100486.69;4995361;28;97417;-27
2023/08/06 00:07:54;;;;;;;2.67;1.60;;;;;;;15.58;98.29;100499.06;4995036;28;96571;-28
2023/08/06 00:10:20;;;;;;;2.75;1.50;;;;;;;15.59;98.47;100497.19;4995576;28;96848;-27
2023/08/06 00:12:45;;;;;;;1.75;1.38;;;;;;;15.56;98.21;100489.28;4994978;28;99501;-27
2023/08/06 00:15:11;;;;;;;2.38;1.52;;;;;;;15.60;97.93;100485.28;4995229;28;97769;-26
2023/08/06 00:17:37;;;;;;;2.63;1.65;;;;;;;15.66;98.07;100490.19;4993956;28;96627;-27
2023/08/06 00:20:04;;;;;;;2.03;1.60;;;;;;;15.63;97.97;100488.59;4995363;28;96822;-27
2023/08/06 00:22:34;;;;;;;2.13;1.40;;;;;;;15.63;98.05;100491.31;4994741;28;99505;-26
2023/08/06 00:24:59;;;;;;;1.85;1.23;;;;;;;15.57;98.13;100478.22;4993992;28;100625;-27
2023/08/06 00:27:25;;;;;;;2.65;1.65;;;;;;;15.63;98.83;100495.94;4995339;28;96490;-27
2023/08/06 00:29:50;;;;;;;2.22;1.55;;;;;;;15.58;98.93;100487.28;4993679;28;96816;-27
2023/08/06 00:32:16;;;;;;;2.88;1.67;;;;;;;15.65;98.70;100499.38;4994309;28;98776;-27
2023/08/06 00:34:41;;;;;;;2.47;1.50;;;;;;;15.65;98.43;100502.97;4995044;28;97746;-27
2023/08/06 00:37:06;;;;;;;2.22;1.13;;;;;;;15.64;98.17;100504.00;4994913;28;96700;-33
2023/08/06 00:39:33;;;;;;;2.92;1.42;;;;;;;15.63;98.01;100504.97;4994670;28;96851;-28
2023/08/06 00:41:58;;;;;;;2.67;1.70;;;;;;;15.59;98.18;100487.16;4994018;28;97301;-27
2023/08/06 00:44:23;;;;;;;2.13;1.35;;;;;;;15.61;98.47;100487.00;4994982;28;97294;-27
2023/08/06 00:46:49;;;;;;;1.75;1.30;;;;;;;15.60;98.26;100488.88;4995081;28;96523;-27
2023/08/06 00:49:14;;;;;;;2.25;1.45;;;;;;;15.61;98.41;100487.00;4995363;28;96774;-27
2023/08/06 00:51:40;;;;;;;2.35;1.70;;;;;;;15.62;98.94;100495.06;4994768;28;97420;-27
2023/08/06 00:54:05;;;;;;;1.95;1.48;;;;;;;15.64;98.02;100494.94;4994537;28;97849;-27
2023/08/06 00:56:35;;;;;;;3.78;1.70;;;;;;;15.65;98.40;100499.38;4994360;28;96565;-27
2023/08/06 00:59:01;;;;;;;2.90;1.73;;;;;;;15.66;98.71;100493.81;4994718;28;96814;-27
2023/08/06 01:01:26;;;;;;;2.45;1.45;;;;;;;15.66;98.71;100498.38;4994361;28;97547;-28
2023/08/06 01:03:53;;;;;;;2.60;1.55;;;;;;;15.66;98.59;100491.06;4994184;28;99469;-27
2023/08/06 01:06:30;;;;;;;2.67;1.65;;;;;;;15.62;99.31;100497.78;4993454;28;96587;-27
2023/08/06 01:09:01;;;;;;;3.08;1.60;;;;;;;15.65;99.11;100504.84;4993467;28;96745;-27
2023/08/06 01:11:50;;;;;;;2.53;1.38;;;;;;;15.68;98.83;100501.84;4993144;28;101016;-27
2023/08/06 01:14:25;;;;;;;3.20;1.75;;;;;;;15.60;98.94;100490.75;4994561;28;99167;-27
2023/08/06 01:16:51;;;;;;;2.55;1.50;;;;;;;15.67;98.48;100503.72;4993108;28;96656;-27
2023/08/06 01:19:21;;;;;;;2.80;1.60;;;;;;;15.68;99.04;100505.47;4993138;28;96870;-27
2023/08/06 01:21:46;;;;;;;2.50;1.40;;;;;;;15.70;99.00;100500.72;4992260;28;101720;-28
2023/08/06 01:24:12;;;;;;;1.52;1.33;;;;;;;15.70;98.82;100498.00;4994105;28;99795;-27
2023/08/06 01:26:53;;;;;;;2.20;1.42;;;;;;;15.71;99.32;100501.63;4993119;28;96664;-26
2023/08/06 01:29:25;;;;;;;2.42;1.30;;;;;;;15.70;98.81;100503.47;4993182;28;96756;-27
2023/08/06 01:31:52;;;;;;;3.33;1.67;;;;;;;15.72;99.22;100511.53;4994588;28;97390;-27
2023/08/06 01:34:21;;;;;;;2.78;1.83;;;;;;;15.67;98.88;100494.66;4992700;28;100688;-27
2023/08/06 01:36:47;;;;;;;2.50;1.67;;;;;;;15.71;98.89;100505.22;4992880;28;96628;-27
2023/08/06 01:39:13;;;;;;;2.10;1.38;;;;;;;15.68;99.11;100496.38;4994119;28;96927;-27
2023/08/06 01:41:38;;;;;;;2.78;1.90;;;;;;;15.70;99.16;100503.47;4993791;28;99403;-27
2023/08/06 01:44:04;;;;;;;2.50;1.35;;;;;;;15.72;99.14;100511.53;4993717;28;98120;-26
2023/08/06 01:46:30;;;;;;;2.58;1.42;;;;;;;15.69;99.41;100511.78;4992410;28;96670;-27
2023/08/06 01:48:55;;;;;;;2.95;1.52;;;;;;;15.72;98.83;100506.06;4994672;28;96807;-26
2023/08/06 01:51:21;;;;;;;2.05;1.33;;;;;;;15.72;98.96;100506.06;4993589;28;99423;-27
2023/08/06 01:53:46;;;;;;;2.70;1.63;;;;;;;15.76;98.87;100509.41;4995594;28;97789;-27
2023/08/06 01:56:11;;;;;;;1.90;1.40;;;;;;;15.77;99.19;100511.97;4997626;28;96540;-27
2023/08/06 01:58:37;;;;;;;3.60;2.00;;;;;;;15.78;98.48;100521.03;4997759;28;96844;-27
2023/08/06 02:01:02;;;;;;;2.47;1.58;;;;;;;15.77;99.04;100517.44;4996914;28;99363;-26
2023/08/06 02:03:28;;;;;;;2.17;1.58;;;;;;;15.76;98.92;100518.47;4997471;28;97774;-27
2023/08/06 02:05:53;;;;;;;3.03;1.80;;;;;;;15.74;99.18;100520.44;4997469;28;96585;-27
2023/08/06 02:08:19;;;;;;;2.42;1.65;;;;;;;15.76;99.41;100526.66;4997371;28;96852;-27
2023/08/06 02:10:44;;;;;;;6.60;2.20;;;;;;;15.77;99.35;100524.78;4996755;28;96996;-28
2023/08/06 02:13:10;;;;;;;3.65;2.00;;;;;;;15.77;99.23;100530.25;4996933;28;97279;-27
2023/08/06 02:15:35;;;;;;;3.25;1.75;;;;;;;15.73;99.28;100526.94;4997427;28;96523;-26
2023/08/06 02:18:00;;;;;;;2.35;1.70;;;;;;;15.75;99.30;100530.34;4997012;28;96861;-27
2023/08/06 02:20:26;;;;;;;3.28;1.60;;;;;;;15.72;99.76;100533.38;4997060;28;97985;-28
2023/08/06 02:22:51;;;;;;;2.20;1.52;;;;;;;15.75;98.94;100535.81;4996660;28;99098;-27
2023/08/06 02:25:17;;;;;;;4.22;1.42;;;;;;;15.77;99.38;100532.97;4997278;28;96692;-27
2023/08/06 02:27:42;;;;;;;2.10;1.45;;;;;;;15.69;99.53;100525.44;4997395;28;96838;-27
2023/08/06 02:30:08;;;;;;;5.95;2.05;;;;;;;15.74;99.58;100527.78;4996883;28;98013;-27
2023/08/06 02:32:35;;;;;;;2.83;1.70;;;;;;;15.77;99.80;100533.81;4996856;28;97785;-27
2023/08/06 02:35:01;;;;;;;3.30;1.88;;;;;;;15.74;99.75;100538.72;4996415;28;96642;-28
2023/08/06 02:37:27;;;;;;;3.00;1.90;;;;;;;15.76;100.00;100533.97;4995381;28;96911;-27
2023/08/06 02:39:53;;;;;;;3.08;1.95;;;;;;;15.68;99.95;100527.31;4996441;28;97351;-27
2023/08/06 02:42:18;;;;;;;3.28;1.75;;;;;;;15.70;99.92;100527.19;4996527;28;97790;-27
2023/08/06 02:44:43;;;;;;;2.28;1.40;;;;;;;15.68;100.00;100532.75;4996803;28;96665;-27
2023/08/06 02:47:09;;;;;;;2.67;1.52;;;;;;;15.74;100.00;100546.91;4997037;28;96828;-27
2023/08/06 02:49:34;;;;;;;2.90;1.75;;;;;;;15.75;100.00;100541.28;4996692;28;97478;-27
2023/08/06 02:52:00;;;;;;;1.80;1.30;;;;;;;15.72;99.80;100536.09;4996544;28;99123;-27
2023/08/06 02:54:25;;;;;;;3.08;1.80;;;;;;;15.74;100.00;100536.84;4995431;28;96587;-27
2023/08/06 02:56:51;;;;;;;2.15;1.45;;;;;;;15.73;99.92;100536.97;4996700;28;96856;-27
2023/08/06 02:59:16;;;;;;;3.10;1.90;;;;;;;15.74;99.98;100542.31;4995894;28;97844;-27
2023/08/06 03:01:41;;;;;;;5.05;1.90;;;;;;;15.76;99.76;100543.03;4996236;28;97359;-27
2023/08/06 03:04:07;;;;;;;2.55;1.77;;;;;;;15.72;99.80;100541.56;4996585;28;96582;-27
2023/08/06 03:06:32;;;;;;;2.90;1.75;;;;;;;15.69;100.00;100533.63;4995769;28;96830;-27
2023/08/06 03:08:57;;;;;;;2.28;1.65;;;;;;;15.68;100.00;100526.41;4996339;28;97878;-27
2023/08/06 03:11:23;;;;;;;3.53;2.03;;;;;;;15.72;100.00;100544.28;4995951;28;97768;-27
2023/08/06 03:13:48;;;;;;;3.20;2.28;;;;;;;15.69;100.00;100534.47;4996524;28;96561;-27
2023/08/06 03:16:14;;;;;;;3.15;2.30;;;;;;;15.74;100.00;100547.75;4996863;28;96820;-27
2023/08/06 03:18:39;;;;;;;2.97;1.90;;;;;;;15.70;100.00;100535.38;4994823;28;98889;-27
2023/08/06 03:21:05;;;;;;;5.03;2.40;;;;;;;15.67;100.00;100530.16;4996164;28;97863;-26
2023/08/06 03:23:30;;;;;;;4.00;2.38;;;;;;;15.67;100.00;100533.75;4995832;28;96481;-27
2023/08/06 03:25:56;;;;;;;3.28;1.75;;;;;;;15.67;100.00;100543.81;4996061;28;96926;-27
2023/08/06 03:28:22;;;;;;;3.20;1.67;;;;;;;15.59;100.00;100533.56;4995830;28;97415;-27
2023/08/06 03:30:48;;;;;;;2.08;1.38;;;;;;;15.56;100.00;100542.00;4994364;28;100900;-27
2023/08/06 03:33:13;;;;;;;1.67;1.05;;;;;;;15.53;100.00;100544.16;4996290;28;96643;-26
2023/08/06 03:35:39;;;;;;;1.30;0.70;;;;;;;15.44;100.00;100541.22;4996177;28;96841;-27
2023/08/06 03:38:04;;;;;;;0.40;0.40;;;;;;;15.38;100.00;100544.50;4995006;28;97437;-27
2023/08/06 03:40:29;;;;;;;0.30;0.20;;;;;;;15.31;100.00;100540.56;4996194;28;97286;-27
2023/08/06 03:42:55;;;;;;;0.10;0.10;;;;;;;15.27;100.00;100542.66;4995735;28;96642;-28
2023/08/06 03:45:20;;;;;;;0.20;0.13;;;;;;;15.27;100.00;100544.53;4995644;28;96901;-27
2023/08/06 03:47:46;;;;;;;0.43;0.30;;;;;;;15.22;100.00;100541.34;4994766;28;99635;-27
2023/08/06 03:50:11;;;;;;;0.10;0.10;;;;;;;15.26;100.00;100553.75;4995408;28;99513;-29
2023/08/06 03:52:36;;;;;;;0.85;0.20;;;;;;;15.23;100.00;100549.41;4995821;28;96551;-27
2023/08/06 03:55:02;;;;;;;0.17;0.13;;;;;;;15.25;100.00;100558.34;4995922;28;96867;-28
2023/08/06 03:57:27;;;;;;;0.57;0.50;;;;;;;15.22;100.00;100560.44;4995078;28;99454;-27
2023/08/06 03:59:53;;;;;;;0.40;0.32;;;;;;;15.17;100.00;100555.38;4995234;28;98138;-27
2023/08/06 04:02:18;;;;;;;0.93;0.70;;;;;;;15.23;100.00;100582.16;4995471;28;96538;-27
2023/08/06 04:04:44;;;;;;;0.60;0.50;;;;;;;15.17;100.00;100573.63;4995775;28;96900;-27
2023/08/06 04:07:09;;;;;;;0.85;0.57;;;;;;;15.11;100.00;100566.84;4995300;28;97729;-27
2023/08/06 04:09:52;;;;;;;1.30;0.82;;;;;;;15.17;100.00;100584.53;4995125;28;99348;-27
2023/08/06 04:12:17;;;;;;;1.50;1.00;;;;;;;15.12;100.00;100590.38;4993687;28;96734;-27
2023/08/06 04:14:42;;;;;;;2.55;1.10;;;;;;;15.14;100.00;100596.59;4995609;28;96839;-27
2023/08/06 04:17:08;;;;;;;2.13;0.98;;;;;;;15.07;100.00;100600.81;4994025;28;97518;-27
2023/08/06 04:19:33;;;;;;;1.58;0.90;;;;;;;14.96;100.00;100606.31;4995384;28;97243;-28
2023/08/06 04:21:58;;;;;;;3.55;0.95;;;;;;;14.89;100.00;100616.00;4995464;28;96714;-27
2023/08/06 04:24:24;;;;;;;1.80;0.82;;;;;;;14.76;100.00;100614.31;4995175;28;96882;-27
2023/08/06 04:26:49;;;;;;;1.77;1.10;;;;;;;14.75;100.00;100618.00;4995204;28;97362;-27
2023/08/06 04:29:15;;;;;;;1.80;1.10;;;;;;;14.65;100.00;100611.59;4995372;28;97199;-27
2023/08/06 04:31:40;;;;;;;3.70;0.80;;;;;;;14.64;100.00;100624.34;4995317;28;96702;-27
2023/08/06 04:34:05;;;;;;;1.77;1.08;;;;;;;14.59;100.00;100614.84;4995208;28;96874;-27
2023/08/06 04:36:31;;;;;;;1.85;0.85;;;;;;;14.56;100.00;100626.88;4994222;28;99217;-27
2023/08/06 04:38:56;;;;;;;2.65;0.90;;;;;;;14.57;100.00;100639.50;4993900;28;97760;-26
2023/08/06 04:41:22;;;;;;;1.38;0.70;;;;;;;14.52;100.00;100628.06;4995115;28;96499;-27
2023/08/06 04:43:47;;;;;;;1.75;0.63;;;;;;;14.54;100.00;100633.41;4995086;28;96953;-27
2023/08/06 04:46:12;;;;;;;1.38;0.90;;;;;;;14.57;100.00;100644.06;4994679;28;98057;-27
2023/08/06 04:48:38;;;;;;;0.90;0.70;;;;;;;14.57;100.00;100644.94;4994744;28;97264;-28
2023/08/06 04:51:03;;;;;;;1.30;0.73;;;;;;;14.65;100.00;100653.34;4995043;28;96619;-26
2023/08/06 04:53:28;;;;;;;3.40;1.40;;;;;;;14.65;100.00;100650.63;4995031;28;96797;-28
2023/08/06 04:55:54;;;;;;;1.50;0.98;;;;;;;14.65;100.00;100650.63;4994373;28;99474;-27
2023/08/06 04:58:19;;;;;;;1.20;0.90;;;;;;;14.69;100.00;100653.13;4994642;28;97247;-27
2023/08/06 05:00:44;;;;;;;1.52;0.85;;;;;;;14.73;100.00;100652.75;4994315;28;97164;-27
2023/08/06 05:03:10;;;;;;;1.13;0.88;;;;;;;14.75;100.00;100658.91;4994716;28;96805;-27
2023/08/06 05:05:35;;;;;;;0.65;0.60;;;;;;;14.76;100.00;100666.09;4994618;28;98070;-27
2023/08/06 05:08:01;;;;;;;1.92;0.93;;;;;;;14.74;100.00;100656.31;4994338;28;99269;-27
2023/08/06 05:10:27;;;;;;;1.45;0.90;;;;;;;14.80;100.00;100661.25;4994486;28;96680;-26
2023/08/06 05:12:53;;;;;;;0.77;0.55;;;;;;;14.79;100.00;100660.41;4994672;28;96834;-26
2023/08/06 05:15:18;;;;;;;2.85;0.90;;;;;;;14.82;100.00;100671.03;4994229;28;99265;-26
2023/08/06 05:17:44;;;;;;;1.63;1.13;;;;;;;14.79;100.00;100662.25;4994458;28;99161;-26
2023/08/06 05:20:10;;;;;;;1.77;1.02;;;;;;;14.86;100.00;100674.41;4994934;28;96616;-27
2023/08/06 05:22:35;;;;;;;2.03;0.88;;;;;;;14.78;100.00;100674.19;4992845;28;96737;-27
2023/08/06 05:25:01;;;;;;;1.80;0.88;;;;;;;14.78;100.00;100680.50;4993871;28;97411;-27
2023/08/06 05:27:26;;;;;;;1.50;0.88;;;;;;;14.86;100.00;100691.63;4994366;28;97302;-27
2023/08/06 05:29:55;;;;;;;1.63;0.90;;;;;;;14.89;100.00;100695.09;4997594;28;96664;-27
2023/08/06 05:32:21;;;;;;;1.67;0.77;;;;;;;14.88;100.00;100702.41;4997817;28;96743;-27
2023/08/06 05:34:46;;;;;;;1.05;0.85;;;;;;;14.88;100.00;100704.28;4997870;28;97451;-27
2023/08/06 05:37:11;;;;;;;1.92;1.20;;;;;;;14.89;100.00;100706.88;4997265;28;99506;-28
2023/08/06 05:39:37;;;;;;;3.38;1.40;;;;;;;14.85;100.00;100706.25;4997680;28;96764;-28
2023/08/06 05:42:03;;;;;;;1.25;0.80;;;;;;;14.88;100.00;100709.72;4998223;28;96810;-27
2023/08/06 05:44:28;;;;;;;0.68;0.68;;;;;;;14.88;100.00;100712.47;4997315;28;98778;-27
2023/08/06 05:46:53;;;;;;;2.15;1.02;;;;;;;14.94;100.00;100720.13;4997489;28;97737;-26
2023/08/06 05:49:19;;;;;;;1.45;1.00;;;;;;;14.93;100.00;100721.13;4996998;28;96551;-27
2023/08/06 05:51:44;;;;;;;2.22;1.33;;;;;;;14.97;100.00;100726.22;4997694;28;96860;-27
2023/08/06 05:54:09;;;;;;;1.42;0.80;;;;;;;14.94;100.00;100728.31;4997082;28;97541;-27
2023/08/06 05:56:35;;;;;;;1.55;0.90;;;;;;;14.92;100.00;100733.00;4997673;28;97241;-27
2023/08/06 05:59:00;;;;;;;1.42;0.82;;;;;;;14.94;100.00;100747.41;4997626;28;96616;-28
2023/08/06 06:01:25;;;;;;;1.60;0.70;;;;;;;14.92;100.00;100741.19;4997065;28;96858;-27
2023/08/06 06:03:51;;;;;;;1.35;0.82;;;;;;;14.89;100.00;100741.47;4997243;28;97391;-27
2023/08/06 06:06:18;;;;;;;2.45;1.00;;;;;;;14.92;100.00;100752.09;4997652;28;97428;-27
2023/08/06 06:08:44;;;;;;;0.90;0.60;;;;;;;14.90;100.00;100754.09;4997213;28;96832;-27
2023/08/06 06:11:09;;;;;;;1.95;0.80;;;;;;;14.88;100.00;100748.78;4996078;28;96840;-28
2023/08/06 06:13:35;;;;;;;1.25;0.75;;;;;;;14.86;100.00;100748.91;4996693;28;98007;-27
2023/08/06 06:16:00;;;;;;;2.28;0.90;;;;;;;14.91;100.00;100748.53;4997038;28;97402;-27
2023/08/06 06:18:26;;;;;;;0.80;0.60;;;;;;;14.94;100.00;100752.84;4997172;28;96553;-27
2023/08/06 06:20:51;;;;;;;2.22;0.68;;;;;;;14.93;100.00;100749.28;4997124;28;96856;-28
2023/08/06 06:23:16;;;;;;;0.65;0.40;;;;;;;14.93;100.00;100753.88;4996629;28;97496;-27
2023/08/06 06:25:43;;;;;;;1.40;0.77;;;;;;;15.00;100.00;100761.41;4996641;28;99231;-29
2023/08/06 06:28:09;;;;;;;0.50;0.30;;;;;;;14.99;100.00;100750.63;4995702;28;96803;-28
2023/08/06 06:30:34;;;;;;;1.70;0.70;;;;;;;15.05;100.00;100761.03;4997506;28;96811;-27
2023/08/06 06:33:00;;;;;;;1.27;0.52;;;;;;;15.01;100.00;100754.09;4996682;28;97086;-27
2023/08/06 06:35:25;;;;;;;2.85;0.77;;;;;;;15.08;100.00;100763.50;4996628;28;99139;-28
2023/08/06 06:37:51;;;;;;;1.08;0.47;;;;;;;15.07;100.00;100767.25;4995894;28;96821;-27
2023/08/06 06:40:16;;;;;;;0.75;0.40;;;;;;;15.16;100.00;100771.94;4994651;28;96971;-27
2023/08/06 06:42:41;;;;;;;0.47;0.47;;;;;;;15.15;100.00;100772.06;4996589;28;97898;-27
2023/08/06 06:45:08;;;;;;;2.60;1.20;;;;;;;15.16;100.00;100771.94;4996439;28;98939;-28
2023/08/06 06:47:33;;;;;;;2.25;0.68;;;;;;;15.20;100.00;100781.59;4995478;28;96623;-27
2023/08/06 06:49:58;;;;;;;1.15;0.45;;;;;;;15.24;100.00;100784.94;4997023;28;96824;-27
2023/08/06 06:52:24;;;;;;;0.32;0.30;;;;;;;15.26;100.00;100782.97;4996085;28;99289;-27
2023/08/06 06:54:49;;;;;;;0.55;0.40;;;;;;;15.24;100.00;100793.13;4996949;28;97716;-27
2023/08/06 06:57:15;;;;;;;2.50;0.60;;;;;;;15.22;100.00;100784.22;4997211;28;96591;-27
2023/08/06 06:59:40;;;;;;;0.70;0.40;;;;;;;15.27;100.00;100793.75;4996804;28;96970;-27
2023/08/06 07:02:05;;;;;;;0.65;0.38;;;;;;;15.29;100.00;100793.63;4995661;28;98034;-26
2023/08/06 07:04:31;;;;;;;0.60;0.40;;;;;;;15.31;100.00;100788.06;4996235;28;97296;-29
2023/08/06 07:06:56;;;;;;;0.95;0.45;;;;;;;15.34;100.00;100793.25;4996576;28;96734;-26
2023/08/06 07:09:22;;;;;;;0.80;0.40;;;;;;;15.33;100.00;100796.97;4996392;28;96768;-27
2023/08/06 07:11:47;;;;;;;0.80;0.30;;;;;;;15.41;100.00;100805.38;4996088;28;97951;-28
2023/08/06 07:14:14;;;;;;;1.40;0.70;;;;;;;15.44;100.00;100808.72;4996260;28;98305;-27
2023/08/06 07:16:39;;;;;;;0.25;0.22;;;;;;;15.45;100.00;100807.75;4994994;28;96809;-26
2023/08/06 07:19:05;;;;;;;0.40;0.30;;;;;;;15.48;100.00;100812.94;4996671;28;96859;-27
2023/08/06 07:21:31;;;;;;;1.08;0.40;;;;;;;15.48;100.00;100804.75;4995574;28;99781;-27
2023/08/06 07:23:57;;;;;;;1.48;0.45;;;;;;;15.55;100.00;100816.03;4995685;28;99242;-27
2023/08/06 07:26:22;;;;;;;2.13;0.70;;;;;;;15.55;100.00;100809.72;4994226;28;96586;-27
2023/08/06 07:28:47;;;;;;;1.63;0.52;;;;;;;15.60;100.00;100812.91;4996006;28;96879;-27
2023/08/06 07:31:13;;;;;;;0.70;0.40;;;;;;;15.64;100.00;100818.00;4995862;28;98263;-27
2023/08/06 07:33:38;;;;;;;1.65;0.45;;;;;;;15.65;99.78;100817.00;4995781;28;97833;-27
2023/08/06 07:36:12;;;;;;;0.52;0.35;;;;;;;15.70;99.70;100831.16;4996110;28;96734;-28
2023/08/06 07:38:37;;;;;;;1.60;0.75;;;;;;;15.69;99.10;100815.75;4995447;28;96836;-27
2023/08/06 07:41:03;;;;;;;1.13;0.63;;;;;;;15.71;98.68;100816.53;4994119;28;100900;-27
2023/08/06 07:43:29;;;;;;;1.33;0.45;;;;;;;15.75;98.46;100817.13;4994388;28;101046;-27
2023/08/06 07:45:58;;;;;;;0.93;0.60;;;;;;;15.75;98.25;100822.59;4996067;28;96580;-27
2023/08/06 07:48:23;;;;;;;1.17;0.63;;;;;;;15.74;98.08;100812.66;4995699;28;96864;-27
2023/08/06 07:50:54;;;;;;;1.10;0.75;;;;;;;15.84;98.28;100826.41;4994764;28;97874;-27
2023/08/06 07:53:21;;;;;;;2.25;0.70;;;;;;;15.85;97.92;100826.31;4994164;28;103091;-26
2023/08/06 07:55:51;;;;;;;2.70;0.77;;;;;;;15.83;97.88;100809.16;4994378;28;96550;-27
2023/08/06 07:58:17;;;;;;;0.98;0.70;;;;;;;15.82;97.39;100815.59;4994294;28;96817;-26
2023/08/06 08:00:45;;;;;;;1.83;0.75;;;;;;;15.86;97.12;100814.38;4995216;28;98013;-27
2023/08/06 08:03:12;;;;;;;1.38;0.68;;;;;;;15.94;97.30;100827.38;4993717;28;101331;-27
2023/08/06 08:05:37;;;;;;;1.63;0.80;;;;;;;16.00;96.94;100824.13;4994171;28;96685;-27
2023/08/06 08:08:02;;;;;;;2.13;0.55;;;;;;;16.06;96.86;100823.59;4995979;28;96869;-26
2023/08/06 08:10:28;;;;;;;0.75;0.50;;;;;;;16.17;96.63;100828.16;4995313;28;97393;-27
2023/08/06 08:12:53;;;;;;;1.90;0.65;;;;;;;16.22;96.23;100819.56;4995095;28;97762;-27
2023/08/06 08:15:18;;;;;;;1.95;0.70;;;;;;;16.25;95.77;100820.16;4994803;28;96652;-26
2023/08/06 08:17:44;;;;;;;0.95;0.65;;;;;;;16.27;94.90;100831.81;4995471;28;96590;-27
2023/08/06 08:20:10;;;;;;;0.73;0.55;;;;;;;16.27;94.95;100822.75;4994952;28;99692;-27
2023/08/06 08:22:35;;;;;;;1.10;0.70;;;;;;;16.38;95.78;100835.53;4993559;28;100963;-27
2023/08/06 08:25:00;;;;;;;0.65;0.40;;;;;;;16.41;95.33;100830.63;4995317;28;97375;-27
2023/08/06 08:27:26;;;;;;;0.85;0.50;;;;;;;16.37;94.03;100823.69;4995234;28;96851;-27
2023/08/06 08:29:51;;;;;;;1.75;0.55;;;;;;;16.40;93.97;100831.66;4994785;28;99700;-27
2023/08/06 08:32:16;;;;;;;3.40;0.63;;;;;;;16.42;93.52;100834.22;4995152;28;97311;-27
2023/08/06 08:34:42;;;;;;;0.80;0.55;;;;;;;16.47;93.29;100841.06;4995036;28;96478;-27
2023/08/06 08:37:07;;;;;;;2.42;0.57;;;;;;;16.48;93.56;100837.31;4995215;28;96836;-27
2023/08/06 08:39:33;;;;;;;0.98;0.70;;;;;;;16.48;92.20;100839.19;4994089;28;97450;-27
2023/08/06 08:41:58;;;;;;;1.42;0.88;;;;;;;16.58;92.41;100841.97;4994734;28;99313;-27
2023/08/06 08:44:28;;;;;;;1.42;0.68;;;;;;;16.53;90.44;100840.50;4994906;28;96672;-27
2023/08/06 08:46:53;;;;;;;0.82;0.60;;;;;;;16.49;90.23;100839.06;4994876;28;96786;-26
2023/08/06 08:49:21;;;;;;;1.05;0.50;;;;;;;16.46;90.45;100833.84;4994759;28;98069;-27
2023/08/06 08:51:48;;;;;;;0.93;0.65;;;;;;;16.57;91.31;100841.13;4993176;28;101060;-27
2023/08/06 08:54:15;;;;;;;1.05;0.57;;;;;;;16.50;89.94;100835.31;4994827;28;97821;-27
2023/08/06 08:56:40;;;;;;;2.95;0.73;;;;;;;16.54;91.08;100852.31;4993709;28;97204;-27
2023/08/06 08:59:06;;;;;;;1.45;0.77;;;;;;;16.55;90.54;100846.72;4994288;28;99646;-27
2023/08/06 09:01:32;;;;;;;1.38;0.60;;;;;;;16.65;91.49;100848.66;4994015;28;98748;-27
2023/08/06 09:03:59;;;;;;;0.95;0.55;;;;;;;16.68;90.31;100842.91;4992139;28;96835;-26
2023/08/06 09:06:27;;;;;;;2.75;0.60;;;;;;;16.75;90.37;100852.31;4993359;28;96865;-27
2023/08/06 09:09:08;;;;;;;0.63;0.45;;;;;;;16.74;89.96;100845.97;4994322;28;97354;-28
2023/08/06 09:11:40;;;;;;;3.00;0.75;;;;;;;16.85;90.20;100860.59;4992901;28;100873;-27
2023/08/06 09:14:08;;;;;;;1.75;0.77;;;;;;;16.83;88.11;100851.66;4993177;28;96701;-27
2023/08/06 09:16:37;;;;;;;0.82;0.40;;;;;;;16.83;88.12;100860.75;4993476;28;96871;-27
2023/08/06 09:19:13;;;;;;;0.77;0.50;;;;;;;16.78;85.67;100857.53;4992842;28;100801;-26
2023/08/06 09:21:42;;;;;;;0.80;0.43;;;;;;;16.80;86.33;100863.75;4993241;28;101230;-28
2023/08/06 09:24:14;;;;;;;0.63;0.43;;;;;;;16.87;85.99;100869.56;5026583;28;96694;-27
2023/08/06 09:26:41;;;;;;;1.23;0.55;;;;;;;16.95;85.71;100862.41;4994424;28;96844;-27
2023/08/06 09:29:07;;;;;;;1.17;0.57;;;;;;;17.14;86.48;100869.00;4992271;28;100920;-27
2023/08/06 09:31:52;;;;;;;0.88;0.60;;;;;;;17.34;85.44;100867.19;4994080;28;97842;-27
2023/08/06 09:34:19;;;;;;;0.63;0.40;;;;;;;17.43;84.73;100849.94;4994620;28;96501;-27
2023/08/06 09:36:47;;;;;;;1.50;0.60;;;;;;;17.69;83.88;100877.72;4997919;28;96911;-27
2023/08/06 09:39:15;;;;;;;0.65;0.57;;;;;;;17.70;82.22;100876.69;4994285;28;100838;-27
2023/08/06 09:41:42;;;;;;;1.98;0.50;;;;;;;17.71;83.53;100886.66;4991036;28;101013;-27
2023/08/06 09:44:25;;;;;;;2.42;0.40;;;;;;;17.67;81.58;100890.69;4994367;28;96563;-27
2023/08/06 09:46:56;;;;;;;1.42;0.52;;;;;;;17.69;81.94;100883.19;4993323;28;96766;-27
2023/08/06 09:49:31;;;;;;;1.30;0.57;;;;;;;18.07;80.06;100886.16;4992401;28;101306;-28
2023/08/06 09:51:59;;;;;;;1.77;0.90;;;;;;;18.62;79.33;100895.59;4992565;28;100944;-28
2023/08/06 09:54:26;;;;;;;1.08;0.70;;;;;;;18.93;77.78;100889.06;4992443;28;96636;-27
2023/08/06 09:56:56;;;;;;;1.50;0.45;;;;;;;19.00;77.83;100895.72;4994239;28;96801;-27
2023/08/06 09:59:23;;;;;;;0.35;0.30;;;;;;;18.90;78.50;100906.69;4992322;28;99167;-28
2023/08/06 10:01:49;;;;;;;0.45;0.30;;;;;;;18.62;76.72;100897.47;4991984;28;101074;-27
2023/08/06 10:04:18;;;;;;;0.55;0.43;;;;;;;18.51;77.57;100897.59;4992650;28;96549;-27
2023/08/06 10:06:50;;;;;;;0.90;0.50;;;;;;;18.46;76.25;100909.00;4992551;28;96910;-27
2023/08/06 10:09:15;;;;;;;2.38;0.63;;;;;;;18.39;75.78;100914.19;4993913;28;97439;-26
2023/08/06 10:11:43;;;;;;;0.82;0.55;;;;;;;18.60;77.12;100919.56;4993988;28;97009;-27
2023/08/06 10:14:16;;;;;;;0.25;0.22;;;;;;;18.76;75.78;100905.28;4992446;28;96682;-27
2023/08/06 10:16:42;;;;;;;0.35;0.30;;;;;;;18.86;74.58;100911.63;4995258;28;96833;-27
2023/08/06 10:19:11;;;;;;;0.65;0.30;;;;;;;18.91;74.54;100913.91;4996470;28;97440;-27
2023/08/06 10:21:40;;;;;;;0.30;0.30;;;;;;;18.92;73.83;100914.78;4995554;28;100698;-26
2023/08/06 10:24:11;;;;;;;1.65;0.45;;;;;;;18.82;74.09;100898.31;4997190;28;96534;-26
2023/08/06 10:26:37;;;;;;;1.95;0.38;;;;;;;18.87;74.22;100917.97;4997268;28;96780;-27
2023/08/06 10:29:38;;;;;;;1.20;0.45;;;;;;;18.89;74.34;100924.19;4995225;28;100159;-28
2023/08/06 10:32:05;;;;;;;0.40;0.40;;;;;;;18.77;74.78;100914.38;4995283;28;100846;-27
2023/08/06 10:34:56;;;;;;;0.95;0.50;;;;;;;18.72;74.42;100913.91;4995413;28;96771;-27
2023/08/06 10:37:23;;;;;;;0.50;0.30;;;;;;;18.70;73.74;100916.78;4995577;28;96984;-27
2023/08/06 10:39:52;;;;;;;0.30;0.28;;;;;;;18.92;74.07;100920.28;4993172;28;100929;-26
2023/08/06 10:42:43;;;;;;;0.65;0.30;;;;;;;19.14;71.30;100917.22;4996075;28;99587;-31
2023/08/06 10:45:16;;;;;;;0.40;0.30;;;;;;;19.34;72.59;100908.91;4991582;28;97097;-27
2023/08/06 10:47:42;;;;;;;0.52;0.32;;;;;;;19.46;73.35;100919.53;4993597;28;97168;-27
2023/08/06 10:50:10;;;;;;;0.95;0.40;;;;;;;19.43;72.01;100917.09;4996419;28;97417;-27
2023/08/06 10:52:36;;;;;;;1.77;0.40;;;;;;;19.33;71.59;100919.03;4994684;28;101287;-27
2023/08/06 10:55:01;;;;;;;0.30;0.30;;;;;;;19.33;71.93;100921.78;4994653;28;97126;-31
2023/08/06 10:57:26;;;;;;;0.70;0.30;;;;;;;19.30;72.00;100920.16;4994550;28;97205;-27
2023/08/06 10:59:52;;;;;;;1.60;0.50;;;;;;;19.15;72.88;100916.19;4994527;28;98124;-29
2023/08/06 11:02:17;;;;;;;0.63;0.30;;;;;;;19.19;72.57;100925.84;4994833;28;98446;-28
2023/08/06 11:04:43;;;;;;;1.10;0.45;;;;;;;19.25;69.64;100927.13;4993790;28;96657;-30
2023/08/06 11:07:08;;;;;;;1.02;0.65;;;;;;;19.24;72.85;100926.28;4994249;28;97019;-28
2023/08/06 11:09:34;;;;;;;0.55;0.50;;;;;;;19.25;72.25;100925.25;4993342;28;97481;-27
2023/08/06 11:11:59;;;;;;;0.77;0.60;;;;;;;19.25;72.75;100932.63;4993758;28;97770;-28
2023/08/06 11:14:24;;;;;;;0.70;0.60;;;;;;;19.27;71.84;100930.59;4993996;28;96999;-31
2023/08/06 11:16:50;;;;;;;0.70;0.40;;;;;;;19.23;70.84;100934.66;4993862;28;97068;-29
2023/08/06 11:19:16;;;;;;;1.25;0.47;;;;;;;19.14;71.97;100930.03;4995986;28;98003;-27